sensor_id;sensor_type;location;lat;lon;timestamp;temperature;humidity
7159;DHT22;63175;52.374;13.132;2023-04-03T00:01:38;3.30;99.90
7159;DHT22;63175;52.374;13.132;2023-04-03T00:04:05;3.20;99.90
7159;DHT22;63175;52.374;13.132;2023-04-03T00:06:32;3.20;99.90
7159;DHT22;63175;52.374;13.132;2023-04-03T00:09:00;3.20;99.90
7159;DHT22;63175;52.374;13.132;2023-04-03T00:11:27;3.20;99.90
7159;DHT22;63175;52.374;13.132;2023-04-03T00:13:54;3.20;99.90
7159;DHT22;63175;52.374;13.132;2023-04-03T00:16:21;3.20;99.90
7159;DHT22;63175;52.374;13.132;2023-04-03T00:18:48;3.20;99.90
7159;DHT22;63175;52.374;13.132;2023-04-03T00:21:15;3.20;99.90
7159;DHT22;63175;52.374;13.132;2023-04-03T00:23:42;3.20;99.90
7159;DHT22;63175;52.374;13.132;2023-04-03T00:26:10;3.10;99.90
7159;DHT22;63175;52.374;13.132;2023-04-03T00:28:37;3.10;99.90
7159;DHT22;63175;52.374;13.132;2023-04-03T00:31:04;3.10;99.90
7159;DHT22;63175;52.374;13.132;2023-04-03T00:33:31;3.10;99.90
7159;DHT22;63175;52.374;13.132;2023-04-03T00:35:58;3.10;99.90
7159;DHT22;63175;52.374;13.132;2023-04-03T00:38:25;3.00;99.90
7159;DHT22;63175;52.374;13.132;2023-04-03T00:40:51;3.00;99.90
7159;DHT22;63175;52.374;13.132;2023-04-03T00:43:22;3.00;99.90
7159;DHT22;63175;52.374;13.132;2023-04-03T00:45:50;2.90;99.90
7159;DHT22;63175;52.374;13.132;2023-04-03T00:48:20;3.00;99.90
7159;DHT22;63175;52.374;13.132;2023-04-03T00:50:48;3.00;99.90
7159;DHT22;63175;52.374;13.132;2023-04-03T00:53:18;3.00;99.90
7159;DHT22;63175;52.374;13.132;2023-04-03T00:55:47;3.00;99.90
7159;DHT22;63175;52.374;13.132;2023-04-03T00:58:15;3.10;99.90
7159;DHT22;63175;52.374;13.132;2023-04-03T01:00:48;2.90;99.90
7159;DHT22;63175;52.374;13.132;2023-04-03T01:03:19;2.90;99.90
7159;DHT22;63175;52.374;13.132;2023-04-03T01:05:45;2.90;99.90
7159;DHT22;63175;52.374;13.132;2023-04-03T01:08:12;2.90;99.90
7159;DHT22;63175;52.374;13.132;2023-04-03T01:10:39;2.90;99.90
7159;DHT22;63175;52.374;13.132;2023-04-03T01:13:22;2.80;99.90
7159;DHT22;63175;52.374;13.132;2023-04-03T01:15:51;2.80;99.90
7159;DHT22;63175;52.374;13.132;2023-04-03T01:18:18;2.80;99.90
7159;DHT22;63175;52.374;13.132;2023-04-03T01:23:48;2.80;99.90
7159;DHT22;63175;52.374;13.132;2023-04-03T01:26:18;2.70;99.90
7159;DHT22;63175;52.374;13.132;2023-04-03T01:28:45;2.70;99.90
7159;DHT22;63175;52.374;13.132;2023-04-03T01:31:20;2.60;99.90
7159;DHT22;63175;52.374;13.132;2023-04-03T01:33:50;2.60;99.90
7159;DHT22;63175;52.374;13.132;2023-04-03T01:36:19;2.60;99.90
7159;DHT22;63175;52.374;13.132;2023-04-03T01:38:46;2.60;99.90
7159;DHT22;63175;52.374;13.132;2023-04-03T01:41:13;2.60;99.90
7159;DHT22;63175;52.374;13.132;2023-04-03T01:43:41;2.60;99.90
7159;DHT22;63175;52.374;13.132;2023-04-03T01:46:08;2.50;99.90
7159;DHT22;63175;52.374;13.132;2023-04-03T01:48:35;2.50;99.90
7159;DHT22;63175;52.374;13.132;2023-04-03T01:51:03;2.50;99.90
7159;DHT22;63175;52.374;13.132;2023-04-03T01:53:30;2.50;99.90
7159;DHT22;63175;52.374;13.132;2023-04-03T01:55:57;2.40;99.90
7159;DHT22;63175;52.374;13.132;2023-04-03T01:58:24;2.40;99.90
7159;DHT22;63175;52.374;13.132;2023-04-03T02:00:51;2.40;99.90
7159;DHT22;63175;52.374;13.132;2023-04-03T02:03:18;2.40;99.90
7159;DHT22;63175;52.374;13.132;2023-04-03T02:05:45;2.30;99.90
7159;DHT22;63175;52.374;13.132;2023-04-03T02:08:13;2.30;99.90
7159;DHT22;63175;52.374;13.132;2023-04-03T02:10:43;2.30;99.90
7159;DHT22;63175;52.374;13.132;2023-04-03T02:13:10;2.30;99.90
7159;DHT22;63175;52.374;13.132;2023-04-03T02:15:38;2.30;99.90
7159;DHT22;63175;52.374;13.132;2023-04-03T02:18:05;2.20;99.90
7159;DHT22;63175;52.374;13.132;2023-04-03T02:20:32;2.20;99.90
7159;DHT22;63175;52.374;13.132;2023-04-03T02:23:00;2.20;99.90
7159;DHT22;63175;52.374;13.132;2023-04-03T02:25:28;2.10;99.90
7159;DHT22;63175;52.374;13.132;2023-04-03T02:27:56;2.10;99.90
7159;DHT22;63175;52.374;13.132;2023-04-03T02:30:23;2.10;99.90
7159;DHT22;63175;52.374;13.132;2023-04-03T02:32:50;2.10;99.90
7159;DHT22;63175;52.374;13.132;2023-04-03T02:35:17;2.10;99.90
7159;DHT22;63175;52.374;13.132;2023-04-03T02:37:44;2.10;99.90
7159;DHT22;63175;52.374;13.132;2023-04-03T02:40:11;2.10;99.90
7159;DHT22;63175;52.374;13.132;2023-04-03T02:42:39;2.10;99.90
7159;DHT22;63175;52.374;13.132;2023-04-03T02:45:07;2.10;99.90
7159;DHT22;63175;52.374;13.132;2023-04-03T02:47:34;2.10;99.90
7159;DHT22;63175;52.374;13.132;2023-04-03T02:50:00;2.00;99.90
7159;DHT22;63175;52.374;13.132;2023-04-03T02:52:27;2.00;99.90
7159;DHT22;63175;52.374;13.132;2023-04-03T02:54:54;2.00;99.90
7159;DHT22;63175;52.374;13.132;2023-04-03T02:57:21;2.00;99.90
7159;DHT22;63175;52.374;13.132;2023-04-03T02:59:49;2.00;99.90
7159;DHT22;63175;52.374;13.132;2023-04-03T03:02:16;2.00;99.90
7159;DHT22;63175;52.374;13.132;2023-04-03T03:04:43;1.90;99.90
7159;DHT22;63175;52.374;13.132;2023-04-03T03:07:09;2.00;99.90
7159;DHT22;63175;52.374;13.132;2023-04-03T03:09:36;1.90;99.90
7159;DHT22;63175;52.374;13.132;2023-04-03T03:12:03;1.90;99.90
7159;DHT22;63175;52.374;13.132;2023-04-03T03:14:30;1.90;99.90
7159;DHT22;63175;52.374;13.132;2023-04-03T03:16:58;1.90;99.90
7159;DHT22;63175;52.374;13.132;2023-04-03T03:19:25;1.90;99.90
7159;DHT22;63175;52.374;13.132;2023-04-03T03:21:52;1.80;99.90
7159;DHT22;63175;52.374;13.132;2023-04-03T03:24:19;1.90;99.90
7159;DHT22;63175;52.374;13.132;2023-04-03T03:26:46;1.80;99.90
7159;DHT22;63175;52.374;13.132;2023-04-03T03:29:12;1.80;99.90
7159;DHT22;63175;52.374;13.132;2023-04-03T03:31:39;1.80;99.90
7159;DHT22;63175;52.374;13.132;2023-04-03T03:34:07;1.80;99.90
7159;DHT22;63175;52.374;13.132;2023-04-03T03:36:35;1.80;99.90
7159;DHT22;63175;52.374;13.132;2023-04-03T03:39:02;1.80;99.90
7159;DHT22;63175;52.374;13.132;2023-04-03T03:41:28;1.80;99.90
7159;DHT22;63175;52.374;13.132;2023-04-03T03:43:56;1.80;99.90
7159;DHT22;63175;52.374;13.132;2023-04-03T03:46:23;1.80;99.90
7159;DHT22;63175;52.374;13.132;2023-04-03T03:48:50;1.70;99.90
7159;DHT22;63175;52.374;13.132;2023-04-03T03:51:19;1.70;99.90
7159;DHT22;63175;52.374;13.132;2023-04-03T03:53:46;1.70;99.90
7159;DHT22;63175;52.374;13.132;2023-04-03T03:56:12;1.80;99.90
7159;DHT22;63175;52.374;13.132;2023-04-03T03:58:39;1.60;99.90
7159;DHT22;63175;52.374;13.132;2023-04-03T04:01:07;1.70;99.90
7159;DHT22;63175;52.374;13.132;2023-04-03T04:03:34;1.70;99.90
7159;DHT22;63175;52.374;13.132;2023-04-03T04:06:00;1.60;99.90
7159;DHT22;63175;52.374;13.132;2023-04-03T04:08:29;1.60;99.90
7159;DHT22;63175;52.374;13.132;2023-04-03T04:10:56;1.60;99.90
7159;DHT22;63175;52.374;13.132;2023-04-03T04:13:23;1.60;99.90
7159;DHT22;63175;52.374;13.132;2023-04-03T04:15:50;1.60;99.90
7159;DHT22;63175;52.374;13.132;2023-04-03T04:18:17;1.50;99.90
7159;DHT22;63175;52.374;13.132;2023-04-03T04:20:45;1.60;99.90
7159;DHT22;63175;52.374;13.132;2023-04-03T04:23:12;1.50;99.90
7159;DHT22;63175;52.374;13.132;2023-04-03T04:25:41;1.50;99.90
7159;DHT22;63175;52.374;13.132;2023-04-03T04:28:07;1.40;99.90
7159;DHT22;63175;52.374;13.132;2023-04-03T04:30:34;1.50;99.90
7159;DHT22;63175;52.374;13.132;2023-04-03T04:33:01;1.40;99.90
7159;DHT22;63175;52.374;13.132;2023-04-03T04:35:28;1.40;99.90
7159;DHT22;63175;52.374;13.132;2023-04-03T04:37:55;1.40;99.90
7159;DHT22;63175;52.374;13.132;2023-04-03T04:40:22;1.40;99.90
7159;DHT22;63175;52.374;13.132;2023-04-03T04:42:50;1.50;99.90
7159;DHT22;63175;52.374;13.132;2023-04-03T04:45:17;1.40;99.90
7159;DHT22;63175;52.374;13.132;2023-04-03T04:47:44;1.40;99.90
7159;DHT22;63175;52.374;13.132;2023-04-03T04:50:11;1.50;99.90
7159;DHT22;63175;52.374;13.132;2023-04-03T04:52:38;1.40;99.90
7159;DHT22;63175;52.374;13.132;2023-04-03T04:55:06;1.40;99.90
7159;DHT22;63175;52.374;13.132;2023-04-03T04:57:33;1.40;99.90
7159;DHT22;63175;52.374;13.132;2023-04-03T05:00:02;1.40;99.90
7159;DHT22;63175;52.374;13.132;2023-04-03T05:02:29;1.40;99.90
7159;DHT22;63175;52.374;13.132;2023-04-03T05:04:56;1.30;99.90
7159;DHT22;63175;52.374;13.132;2023-04-03T05:07:23;1.40;99.90
7159;DHT22;63175;52.374;13.132;2023-04-03T05:09:50;1.40;99.90
7159;DHT22;63175;52.374;13.132;2023-04-03T05:12:17;1.40;99.90
7159;DHT22;63175;52.374;13.132;2023-04-03T05:14:44;1.40;99.90
7159;DHT22;63175;52.374;13.132;2023-04-03T05:17:12;1.40;99.90
7159;DHT22;63175;52.374;13.132;2023-04-03T05:19:38;1.40;99.90
7159;DHT22;63175;52.374;13.132;2023-04-03T05:22:05;1.40;99.90
7159;DHT22;63175;52.374;13.132;2023-04-03T05:24:32;1.40;99.90
7159;DHT22;63175;52.374;13.132;2023-04-03T05:26:59;1.40;99.90
7159;DHT22;63175;52.374;13.132;2023-04-03T05:29:26;1.50;99.90
7159;DHT22;63175;52.374;13.132;2023-04-03T05:31:53;1.50;99.90
7159;DHT22;63175;52.374;13.132;2023-04-03T05:34:21;1.50;99.90
7159;DHT22;63175;52.374;13.132;2023-04-03T05:36:48;1.60;99.90
7159;DHT22;63175;52.374;13.132;2023-04-03T05:39:15;1.60;99.90
7159;DHT22;63175;52.374;13.132;2023-04-03T05:41:41;1.70;99.90
7159;DHT22;63175;52.374;13.132;2023-04-03T05:44:08;1.60;99.90
7159;DHT22;63175;52.374;13.132;2023-04-03T05:46:35;1.80;99.90
7159;DHT22;63175;52.374;13.132;2023-04-03T05:49:02;1.90;99.90
7159;DHT22;63175;52.374;13.132;2023-04-03T05:51:33;2.00;99.90
7159;DHT22;63175;52.374;13.132;2023-04-03T05:54:06;2.10;99.90
7159;DHT22;63175;52.374;13.132;2023-04-03T05:56:33;2.20;99.90
7159;DHT22;63175;52.374;13.132;2023-04-03T05:59:00;2.30;99.90
7159;DHT22;63175;52.374;13.132;2023-04-03T06:01:27;2.50;99.90
7159;DHT22;63175;52.374;13.132;2023-04-03T06:03:54;2.60;99.90
7159;DHT22;63175;52.374;13.132;2023-04-03T06:06:21;2.80;99.90
7159;DHT22;63175;52.374;13.132;2023-04-03T06:08:50;2.90;99.90
7159;DHT22;63175;52.374;13.132;2023-04-03T06:11:17;3.10;99.90
7159;DHT22;63175;52.374;13.132;2023-04-03T06:13:44;3.30;99.90
7159;DHT22;63175;52.374;13.132;2023-04-03T06:16:12;3.50;99.90
7159;DHT22;63175;52.374;13.132;2023-04-03T06:18:41;3.70;99.90
7159;DHT22;63175;52.374;13.132;2023-04-03T06:21:07;3.90;99.90
7159;DHT22;63175;52.374;13.132;2023-04-03T06:23:34;3.90;99.90
7159;DHT22;63175;52.374;13.132;2023-04-03T06:26:03;4.30;99.90
7159;DHT22;63175;52.374;13.132;2023-04-03T06:28:31;4.60;99.90
7159;DHT22;63175;52.374;13.132;2023-04-03T06:30:57;4.80;99.90
7159;DHT22;63175;52.374;13.132;2023-04-03T06:33:24;5.10;99.90
7159;DHT22;63175;52.374;13.132;2023-04-03T06:35:56;5.30;99.90
7159;DHT22;63175;52.374;13.132;2023-04-03T06:38:23;5.60;99.90
7159;DHT22;63175;52.374;13.132;2023-04-03T06:40:50;5.80;99.90
7159;DHT22;63175;52.374;13.132;2023-04-03T06:43:19;6.00;99.90
7159;DHT22;63175;52.374;13.132;2023-04-03T06:45:47;6.20;99.90
7159;DHT22;63175;52.374;13.132;2023-04-03T06:48:13;6.50;99.90
7159;DHT22;63175;52.374;13.132;2023-04-03T06:50:40;6.70;99.90
7159;DHT22;63175;52.374;13.132;2023-04-03T06:53:07;6.90;99.90
7159;DHT22;63175;52.374;13.132;2023-04-03T06:55:34;7.00;99.90
7159;DHT22;63175;52.374;13.132;2023-04-03T06:58:01;7.20;99.90
7159;DHT22;63175;52.374;13.132;2023-04-03T07:00:30;7.60;99.90
7159;DHT22;63175;52.374;13.132;2023-04-03T07:02:57;7.90;99.90
7159;DHT22;63175;52.374;13.132;2023-04-03T07:05:24;8.20;98.70
7159;DHT22;63175;52.374;13.132;2023-04-03T07:07:51;8.60;97.00
7159;DHT22;63175;52.374;13.132;2023-04-03T07:10:18;8.90;95.70
7159;DHT22;63175;52.374;13.132;2023-04-03T07:12:45;9.30;94.00
7159;DHT22;63175;52.374;13.132;2023-04-03T07:15:12;9.60;92.20
7159;DHT22;63175;52.374;13.132;2023-04-03T07:17:41;9.60;91.10
7159;DHT22;63175;52.374;13.132;2023-04-03T07:20:09;9.70;90.50
7159;DHT22;63175;52.374;13.132;2023-04-03T07:22:36;9.70;88.40
7159;DHT22;63175;52.374;13.132;2023-04-03T07:25:03;9.80;87.60
7159;DHT22;63175;52.374;13.132;2023-04-03T07:27:33;9.90;86.70
7159;DHT22;63175;52.374;13.132;2023-04-03T07:30:00;10.00;85.00
7159;DHT22;63175;52.374;13.132;2023-04-03T07:32:27;10.00;83.70
7159;DHT22;63175;52.374;13.132;2023-04-03T07:34:56;9.80;83.90
7159;DHT22;63175;52.374;13.132;2023-04-03T07:37:23;9.60;83.60
7159;DHT22;63175;52.374;13.132;2023-04-03T07:39:50;9.60;84.20
7159;DHT22;63175;52.374;13.132;2023-04-03T07:42:17;9.50;83.60
7159;DHT22;63175;52.374;13.132;2023-04-03T07:44:44;9.40;84.40
7159;DHT22;63175;52.374;13.132;2023-04-03T07:47:11;9.30;87.70
7159;DHT22;63175;52.374;13.132;2023-04-03T07:49:39;9.20;83.00
7159;DHT22;63175;52.374;13.132;2023-04-03T07:52:08;8.90;83.00
7159;DHT22;63175;52.374;13.132;2023-04-03T07:54:35;8.60;84.70
7159;DHT22;63175;52.374;13.132;2023-04-03T07:57:02;8.40;85.60
7159;DHT22;63175;52.374;13.132;2023-04-03T07:59:29;8.00;86.70
7159;DHT22;63175;52.374;13.132;2023-04-03T08:01:56;7.80;87.40
7159;DHT22;63175;52.374;13.132;2023-04-03T08:04:23;7.60;88.70
7159;DHT22;63175;52.374;13.132;2023-04-03T08:06:51;7.40;89.60
7159;DHT22;63175;52.374;13.132;2023-04-03T08:09:19;7.40;89.40
7159;DHT22;63175;52.374;13.132;2023-04-03T08:11:46;7.40;89.80
7159;DHT22;63175;52.374;13.132;2023-04-03T08:14:14;7.40;88.90
7159;DHT22;63175;52.374;13.132;2023-04-03T08:16:44;7.50;87.90
7159;DHT22;63175;52.374;13.132;2023-04-03T08:19:11;8.20;87.40
7159;DHT22;63175;52.374;13.132;2023-04-03T08:21:39;9.10;85.60
7159;DHT22;63175;52.374;13.132;2023-04-03T08:24:07;9.60;83.10
7159;DHT22;63175;52.374;13.132;2023-04-03T08:26:35;9.90;81.60
7159;DHT22;63175;52.374;13.132;2023-04-03T08:29:02;10.50;80.80
7159;DHT22;63175;52.374;13.132;2023-04-03T08:31:29;11.70;80.10
7159;DHT22;63175;52.374;13.132;2023-04-03T08:33:57;13.00;77.50
7159;DHT22;63175;52.374;13.132;2023-04-03T08:36:25;14.30;66.90
7159;DHT22;63175;52.374;13.132;2023-04-03T08:38:54;15.30;73.20
7159;DHT22;63175;52.374;13.132;2023-04-03T08:41:29;15.60;69.70
7159;DHT22;63175;52.374;13.132;2023-04-03T08:44:02;15.00;67.90
7159;DHT22;63175;52.374;13.132;2023-04-03T08:46:40;14.10;67.80
7159;DHT22;63175;52.374;13.132;2023-04-03T08:49:13;13.20;69.10
7159;DHT22;63175;52.374;13.132;2023-04-03T08:51:46;12.20;68.70
7159;DHT22;63175;52.374;13.132;2023-04-03T08:54:24;11.20;68.90
7159;DHT22;63175;52.374;13.132;2023-04-03T08:56:52;10.40;69.80
7159;DHT22;63175;52.374;13.132;2023-04-03T08:59:26;10.50;71.90
7159;DHT22;63175;52.374;13.132;2023-04-03T09:01:56;11.40;72.80
7159;DHT22;63175;52.374;13.132;2023-04-03T09:04:26;11.90;71.50
7159;DHT22;63175;52.374;13.132;2023-04-03T09:06:57;11.70;70.60
7159;DHT22;63175;52.374;13.132;2023-04-03T09:09:31;11.30;70.90
7159;DHT22;63175;52.374;13.132;2023-04-03T09:12:06;10.90;71.90
7159;DHT22;63175;52.374;13.132;2023-04-03T09:14:46;10.40;72.70
7159;DHT22;63175;52.374;13.132;2023-04-03T09:17:22;9.90;74.70
7159;DHT22;63175;52.374;13.132;2023-04-03T09:19:57;9.60;75.40
7159;DHT22;63175;52.374;13.132;2023-04-03T09:22:26;9.30;76.00
7159;DHT22;63175;52.374;13.132;2023-04-03T09:24:58;9.00;76.70
7159;DHT22;63175;52.374;13.132;2023-04-03T09:27:26;8.80;77.00
7159;DHT22;63175;52.374;13.132;2023-04-03T09:29:56;8.70;77.90
7159;DHT22;63175;52.374;13.132;2023-04-03T09:32:27;8.60;78.50
7159;DHT22;63175;52.374;13.132;2023-04-03T09:34:57;8.50;78.90
7159;DHT22;63175;52.374;13.132;2023-04-03T09:37:45;8.40;76.50
7159;DHT22;63175;52.374;13.132;2023-04-03T09:40:32;8.40;73.10
7159;DHT22;63175;52.374;13.132;2023-04-03T09:43:08;8.50;75.20
7159;DHT22;63175;52.374;13.132;2023-04-03T09:45:48;8.50;75.80
7159;DHT22;63175;52.374;13.132;2023-04-03T09:48:17;8.50;75.80
7159;DHT22;63175;52.374;13.132;2023-04-03T09:50:58;8.40;77.30
7159;DHT22;63175;52.374;13.132;2023-04-03T09:53:31;8.50;77.00
7159;DHT22;63175;52.374;13.132;2023-04-03T09:55:59;8.50;75.90
7159;DHT22;63175;52.374;13.132;2023-04-03T09:58:28;8.60;75.40
7159;DHT22;63175;52.374;13.132;2023-04-03T10:00:58;8.70;75.80
7159;DHT22;63175;52.374;13.132;2023-04-03T10:03:29;8.70;75.50
7159;DHT22;63175;52.374;13.132;2023-04-03T10:05:56;8.70;74.60
7159;DHT22;63175;52.374;13.132;2023-04-03T10:08:28;8.70;74.30
7159;DHT22;63175;52.374;13.132;2023-04-03T10:11:14;9.00;74.70
7159;DHT22;63175;52.374;13.132;2023-04-03T10:13:53;9.60;76.90
7159;DHT22;63175;52.374;13.132;2023-04-03T10:16:29;10.40;75.80
7159;DHT22;63175;52.374;13.132;2023-04-03T10:19:29;11.00;75.20
7159;DHT22;63175;52.374;13.132;2023-04-03T10:22:02;11.40;71.80
7159;DHT22;63175;52.374;13.132;2023-04-03T10:24:36;11.50;71.90
7159;DHT22;63175;52.374;13.132;2023-04-03T10:27:09;11.70;71.10
7159;DHT22;63175;52.374;13.132;2023-04-03T10:29:41;11.60;72.30
7159;DHT22;63175;52.374;13.132;2023-04-03T10:32:40;11.40;70.60
7159;DHT22;63175;52.374;13.132;2023-04-03T10:35:15;11.40;71.40
7159;DHT22;63175;52.374;13.132;2023-04-03T10:37:52;11.50;71.20
7159;DHT22;63175;52.374;13.132;2023-04-03T10:40:27;11.30;70.70
7159;DHT22;63175;52.374;13.132;2023-04-03T10:43:02;11.10;71.40
7159;DHT22;63175;52.374;13.132;2023-04-03T10:45:45;10.80;72.30
7159;DHT22;63175;52.374;13.132;2023-04-03T10:48:18;10.50;73.10
7159;DHT22;63175;52.374;13.132;2023-04-03T10:50:54;10.30;74.60
7159;DHT22;63175;52.374;13.132;2023-04-03T10:53:29;10.20;75.30
7159;DHT22;63175;52.374;13.132;2023-04-03T10:56:02;10.10;74.70
7159;DHT22;63175;52.374;13.132;2023-04-03T10:58:38;9.90;77.50
7159;DHT22;63175;52.374;13.132;2023-04-03T11:01:08;9.90;77.70
7159;DHT22;63175;52.374;13.132;2023-04-03T11:03:40;9.90;77.20
7159;DHT22;63175;52.374;13.132;2023-04-03T11:06:10;9.80;77.00
7159;DHT22;63175;52.374;13.132;2023-04-03T11:08:43;9.60;77.10
7159;DHT22;63175;52.374;13.132;2023-04-03T11:11:13;9.50;78.00
7159;DHT22;63175;52.374;13.132;2023-04-03T11:13:46;9.50;78.40
7159;DHT22;63175;52.374;13.132;2023-04-03T11:16:19;9.70;75.30
7159;DHT22;63175;52.374;13.132;2023-04-03T11:18:52;9.30;74.60
7159;DHT22;63175;52.374;13.132;2023-04-03T11:21:31;9.20;74.80
7159;DHT22;63175;52.374;13.132;2023-04-03T11:24:05;9.10;75.50
7159;DHT22;63175;52.374;13.132;2023-04-03T11:26:42;9.00;75.50
7159;DHT22;63175;52.374;13.132;2023-04-03T11:29:17;8.90;75.70
7159;DHT22;63175;52.374;13.132;2023-04-03T11:32:06;8.80;76.20
7159;DHT22;63175;52.374;13.132;2023-04-03T11:34:40;8.80;76.20
7159;DHT22;63175;52.374;13.132;2023-04-03T11:37:15;8.80;75.10
7159;DHT22;63175;52.374;13.132;2023-04-03T11:39:53;8.80;74.70
7159;DHT22;63175;52.374;13.132;2023-04-03T11:42:32;8.80;75.30
7159;DHT22;63175;52.374;13.132;2023-04-03T11:51:42;8.70;75.30
7159;DHT22;63175;52.374;13.132;2023-04-03T11:54:48;8.70;75.60
7159;DHT22;63175;52.374;13.132;2023-04-03T11:57:46;8.80;75.50
7159;DHT22;63175;52.374;13.132;2023-04-03T12:00:51;8.70;75.30
7159;DHT22;63175;52.374;13.132;2023-04-03T12:07:08;8.60;76.00
7159;DHT22;63175;52.374;13.132;2023-04-03T12:12:57;8.50;76.90
7159;DHT22;63175;52.374;13.132;2023-04-03T12:15:50;8.30;77.40
7159;DHT22;63175;52.374;13.132;2023-04-03T12:18:58;8.20;76.20
7159;DHT22;63175;52.374;13.132;2023-04-03T12:24:38;8.10;77.20
7159;DHT22;63175;52.374;13.132;2023-04-03T12:27:28;8.10;77.30
7159;DHT22;63175;52.374;13.132;2023-04-03T12:30:14;8.10;77.40
7159;DHT22;63175;52.374;13.132;2023-04-03T12:33:12;8.20;77.80
7159;DHT22;63175;52.374;13.132;2023-04-03T12:35:46;8.20;78.30
7159;DHT22;63175;52.374;13.132;2023-04-03T12:41:29;8.30;78.00
7159;DHT22;63175;52.374;13.132;2023-04-03T12:44:08;8.20;77.70
7159;DHT22;63175;52.374;13.132;2023-04-03T12:46:47;8.20;77.60
7159;DHT22;63175;52.374;13.132;2023-04-03T12:49:35;8.30;78.00
7159;DHT22;63175;52.374;13.132;2023-04-03T12:52:18;8.30;78.60
7159;DHT22;63175;52.374;13.132;2023-04-03T12:54:49;8.20;78.80
7159;DHT22;63175;52.374;13.132;2023-04-03T12:57:22;8.20;78.70
7159;DHT22;63175;52.374;13.132;2023-04-03T13:00:00;8.20;78.40
7159;DHT22;63175;52.374;13.132;2023-04-03T13:02:45;8.10;77.80
7159;DHT22;63175;52.374;13.132;2023-04-03T13:05:17;8.10;78.00
7159;DHT22;63175;52.374;13.132;2023-04-03T13:07:54;8.10;78.30
7159;DHT22;63175;52.374;13.132;2023-04-03T13:10:26;8.10;78.00
7159;DHT22;63175;52.374;13.132;2023-04-03T13:12:56;8.20;78.20
7159;DHT22;63175;52.374;13.132;2023-04-03T13:15:26;8.10;78.40
7159;DHT22;63175;52.374;13.132;2023-04-03T13:17:56;8.20;78.50
7159;DHT22;63175;52.374;13.132;2023-04-03T13:20:26;8.20;78.50
7159;DHT22;63175;52.374;13.132;2023-04-03T13:22:58;8.10;79.20
7159;DHT22;63175;52.374;13.132;2023-04-03T13:25:31;8.10;78.50
7159;DHT22;63175;52.374;13.132;2023-04-03T13:28:10;8.10;78.80
7159;DHT22;63175;52.374;13.132;2023-04-03T13:31:02;8.00;79.70
7159;DHT22;63175;52.374;13.132;2023-04-03T13:33:34;7.90;80.00
7159;DHT22;63175;52.374;13.132;2023-04-03T13:36:07;7.80;78.80
7159;DHT22;63175;52.374;13.132;2023-04-03T13:38:40;7.80;78.90
7159;DHT22;63175;52.374;13.132;2023-04-03T13:41:24;7.70;78.80
7159;DHT22;63175;52.374;13.132;2023-04-03T13:43:53;7.60;78.80
7159;DHT22;63175;52.374;13.132;2023-04-03T13:46:29;7.70;79.90
7159;DHT22;63175;52.374;13.132;2023-04-03T13:49:20;7.70;79.30
7159;DHT22;63175;52.374;13.132;2023-04-03T13:51:55;7.70;79.00
7159;DHT22;63175;52.374;13.132;2023-04-03T13:54:29;7.70;78.90
7159;DHT22;63175;52.374;13.132;2023-04-03T13:57:10;7.70;79.10
7159;DHT22;63175;52.374;13.132;2023-04-03T13:59:43;7.70;79.00
7159;DHT22;63175;52.374;13.132;2023-04-03T14:02:18;7.70;79.20
7159;DHT22;63175;52.374;13.132;2023-04-03T14:04:54;7.70;79.30
7159;DHT22;63175;52.374;13.132;2023-04-03T14:07:24;7.70;79.40
7159;DHT22;63175;52.374;13.132;2023-04-03T14:10:00;7.60;79.60
7159;DHT22;63175;52.374;13.132;2023-04-03T14:12:36;7.60;80.00
7159;DHT22;63175;52.374;13.132;2023-04-03T14:15:21;7.50;80.80
7159;DHT22;63175;52.374;13.132;2023-04-03T14:17:49;7.40;80.90
7159;DHT22;63175;52.374;13.132;2023-04-03T14:20:27;7.50;81.40
7159;DHT22;63175;52.374;13.132;2023-04-03T14:22:55;7.30;81.30
7159;DHT22;63175;52.374;13.132;2023-04-03T14:25:26;7.30;81.80
7159;DHT22;63175;52.374;13.132;2023-04-03T14:27:54;7.20;83.00
7159;DHT22;63175;52.374;13.132;2023-04-03T14:30:27;7.20;83.90
7159;DHT22;63175;52.374;13.132;2023-04-03T14:33:03;7.30;84.70
7159;DHT22;63175;52.374;13.132;2023-04-03T14:35:37;7.20;84.30
7159;DHT22;63175;52.374;13.132;2023-04-03T14:38:21;7.20;84.30
7159;DHT22;63175;52.374;13.132;2023-04-03T14:40:56;7.20;84.50
7159;DHT22;63175;52.374;13.132;2023-04-03T14:43:27;7.20;85.10
7159;DHT22;63175;52.374;13.132;2023-04-03T14:45:57;7.20;83.60
7159;DHT22;63175;52.374;13.132;2023-04-03T14:48:27;7.20;83.70
7159;DHT22;63175;52.374;13.132;2023-04-03T14:50:59;7.10;83.60
7159;DHT22;63175;52.374;13.132;2023-04-03T14:53:29;7.10;84.20
7159;DHT22;63175;52.374;13.132;2023-04-03T14:55:58;7.00;84.60
7159;DHT22;63175;52.374;13.132;2023-04-03T14:58:25;7.00;84.40
7159;DHT22;63175;52.374;13.132;2023-04-03T15:01:17;7.00;84.30
7159;DHT22;63175;52.374;13.132;2023-04-03T15:03:49;6.90;84.40
7159;DHT22;63175;52.374;13.132;2023-04-03T15:06:16;6.70;84.30
7159;DHT22;63175;52.374;13.132;2023-04-03T15:08:45;6.90;84.60
7159;DHT22;63175;52.374;13.132;2023-04-03T15:11:14;6.90;84.80
7159;DHT22;63175;52.374;13.132;2023-04-03T15:13:41;6.90;85.00
7159;DHT22;63175;52.374;13.132;2023-04-03T15:16:19;6.90;85.60
7159;DHT22;63175;52.374;13.132;2023-04-03T15:18:48;6.90;86.20
7159;DHT22;63175;52.374;13.132;2023-04-03T15:21:27;6.90;86.50
7159;DHT22;63175;52.374;13.132;2023-04-03T15:23:56;7.00;87.50
7159;DHT22;63175;52.374;13.132;2023-04-03T15:26:25;7.00;88.20
7159;DHT22;63175;52.374;13.132;2023-04-03T15:28:56;7.00;87.60
7159;DHT22;63175;52.374;13.132;2023-04-03T15:31:29;7.00;87.10
7159;DHT22;63175;52.374;13.132;2023-04-03T15:33:57;7.10;87.40
7159;DHT22;63175;52.374;13.132;2023-04-03T15:36:30;7.10;88.00
7159;DHT22;63175;52.374;13.132;2023-04-03T15:38:58;7.10;87.70
7159;DHT22;63175;52.374;13.132;2023-04-03T15:41:32;7.10;87.20
7159;DHT22;63175;52.374;13.132;2023-04-03T15:44:06;6.90;87.20
7159;DHT22;63175;52.374;13.132;2023-04-03T15:46:34;6.90;87.60
7159;DHT22;63175;52.374;13.132;2023-04-03T15:49:02;6.90;88.50
7159;DHT22;63175;52.374;13.132;2023-04-03T15:51:42;6.80;88.60
7159;DHT22;63175;52.374;13.132;2023-04-03T15:54:12;6.80;88.50
7159;DHT22;63175;52.374;13.132;2023-04-03T15:56:40;6.80;89.40
7159;DHT22;63175;52.374;13.132;2023-04-03T15:59:10;6.70;90.20
7159;DHT22;63175;52.374;13.132;2023-04-03T16:01:44;6.70;90.40
7159;DHT22;63175;52.374;13.132;2023-04-03T16:04:16;6.70;88.90
7159;DHT22;63175;52.374;13.132;2023-04-03T16:06:51;6.60;90.30
7159;DHT22;63175;52.374;13.132;2023-04-03T16:09:28;6.70;90.40
7159;DHT22;63175;52.374;13.132;2023-04-03T16:12:05;6.70;90.00
7159;DHT22;63175;52.374;13.132;2023-04-03T16:14:32;6.70;89.80
7159;DHT22;63175;52.374;13.132;2023-04-03T16:17:04;6.60;89.70
7159;DHT22;63175;52.374;13.132;2023-04-03T16:19:33;6.60;90.00
7159;DHT22;63175;52.374;13.132;2023-04-03T16:22:05;6.60;89.90
7159;DHT22;63175;52.374;13.132;2023-04-03T16:24:39;6.50;89.60
7159;DHT22;63175;52.374;13.132;2023-04-03T16:27:10;6.50;89.70
7159;DHT22;63175;52.374;13.132;2023-04-03T16:29:43;6.50;90.00
7159;DHT22;63175;52.374;13.132;2023-04-03T16:32:19;6.40;90.10